Weather observations for the past three days for
Salina, Salina Municipal Airport
Imperial (Metric)
Date Time (cdt) Wind (mph) Vis. (mi.) Weather Sky Cond. Temperature (ºF) Relative Humidity Wind Chill (°F) Heat Index (°F) Pressure Precipitation (in)
Air Dwpt 6 hour altimeter (in) sea level (mb) 1 hr 3 hr 6 hr
Max. Min.
04 17:53 NE 7 10.00 Fair CLR 84 39.9 21% 81 29.57 1000.4
04 16:53 Vrbl 6 10.00 Fair CLR 84 41 22% 81 29.57 1000.3
04 15:53 SE 6 10.00 Fair CLR 82.9 43 24% 81 29.6 1001.1
04 14:53 SE 6 10.00 Fair CLR 81 44.1 27% 80 29.62 1001.9
04 13:53 NE 7 10.00 Fair CLR 81 44.1 27% 80 29.63 1002.3
04 12:53 NE 7 10.00 Fair CLR 81 45 81 54 28% 80 29.64 1002.4
04 11:53 N 3 10.00 Fair CLR 77 48 36% 78 29.64 1002.7
04 10:53 NW 7 10.00 Fair CLR 73.9 46 37% 29.65 1002.8
04 09:53 SW 8 10.00 Fair CLR 70 45 41% 29.64 1002.7
04 08:53 SW 8 10.00 Fair CLR 64.9 46 51% 29.65 1003.0
04 07:53 S 7 10.00 Fair CLR 61 46 58% 29.62 1002.0
04 06:53 S 8 10.00 Partly Cloudy SCT050 54 45 64 53.1 72% 29.62 1002.0
04 05:53 S 6 10.00 Fair CLR 53.1 44.1 72% 29.63 1002.3
04 04:53 N 5 10.00 Fair CLR 57 43 60% 29.64 1002.6
04 03:53 S 5 10.00 Fair CLR 55.9 43 62% 29.64 1002.7
04 02:53 SW 6 10.00 Fair CLR 57.9 42.1 56% 29.66 1003.3
04 01:53 N 7 10.00 Fair CLR 57 43 60% 29.68 1004.0
04 00:53 S 12 10.00 Partly Cloudy SCT110 64 42.1 80.1 61 45% 29.68 1004.0
03 23:53 S 8 10.00 Fair CLR 64.9 42.1 43% 29.7 1004.7
03 22:53 NE 8 10.00 Fair CLR 69.1 43 39% 29.72 1005.4
03 21:53 E 9 10.00 Fair CLR 72 44.1 37% 29.73 1005.6
03 20:53 Vrbl 3 10.00 Fair CLR 73.9 45 36% 29.72 1005.3
03 19:53 E 10 10.00 Fair CLR 78.1 44.1 30% 78 29.71 1005.2
03 18:53 E 9 10.00 Fair CLR 80.1 44.1 82.9 78.1 28% 79 29.73 1005.8
03 17:53 E 6 10.00 Fair CLR 82 41 23% 80 29.75 1006.5
03 16:53 Calm 10.00 Fair CLR 82.9 41 23% 81 29.78 1007.4
03 15:53 N 5 10.00 Fair CLR 82 42.1 24% 80 29.8 1008.4
03 14:53 NW 5 10.00 Fair CLR 81 42.1 25% 79 29.84 1009.6
03 13:53 NW 12 10.00 Fair CLR 81 42.1 25% 79 29.87 1010.5
03 12:53 NW 8 10.00 Fair CLR 79 44.1 79 51.1 29% 79 29.9 1011.8
03 11:53 W 5 G 20 10.00 Fair CLR 75.9 43 31% 77 29.93 1012.8
03 10:53 W 12 10.00 Fair CLR 73 42.1 33% 29.94 1013.2
03 09:53 SW 13 10.00 Fair CLR 68 43 40% 29.94 1013.3
03 08:53 SW 20 10.00 Fair CLR 61 43 52% 29.94 1013.4
03 07:53 S 17 10.00 Fair CLR 55 41 59% 29.94 1013.5
03 06:53 S 15 10.00 Fair CLR 51.1 39.9 53.1 46 66% 29.94 1013.4
03 05:53 S 15 10.00 Fair CLR 51.1 39 64% 29.94 1013.5
03 04:53 S 15 10.00 Fair CLR 53.1 37.9 57% 29.96 1014.2
03 03:53 S 15 10.00 Fair CLR 53.1 37 55% 29.97 1014.4
03 02:53 S 10 10.00 Fair CLR 50 35.1 57% 46 29.99 1015.2
03 01:53 S 7 10.00 Fair CLR 48 35.1 61% 45 30.01 1015.9
03 00:53 S 12 10.00 Fair CLR 51.1 34 68 48.9 52% 30.02 1016.4
02 23:53 S 8 10.00 Fair CLR 50 36 59% 47 30.04 1016.9
02 21:53 SE 7 10.00 Fair CLR 57 33.1 41% 30.06 1017.7
02 20:53 SE 3 10.00 Fair CLR 62.1 28.9 29% 30.05 1017.5
02 19:53 Calm 10.00 Fair CLR 66 25 21% 30.05 1017.5
02 18:53 SW 5 10.00 Fair CLR 68 24.1 69.1 61 19% 30.07 1018.0
02 17:53 NW 7 10.00 Fair CLR 68 27 21% 30.08 1018.3
02 16:53 Calm 10.00 Fair CLR 66.9 27 22% 30.09 1018.9
02 15:53 W 5 10.00 Fair CLR 66 30 26% 30.12 1019.9
02 14:53 N 6 10.00 Fair CLR 64.9 30 27% 30.15 1020.6
02 13:53 Vrbl 3 10.00 Fair CLR 63 30 29% 30.17 1021.4
02 12:53 Calm 10.00 Fair CLR 61 30.9 62.1 37.9 32% 30.19 1022.2
02 11:53 Vrbl 6 10.00 Fair CLR 60.1 30 32% 30.21 1022.8
02 10:53 Calm 10.00 Fair CLR 57 28.9 34% 30.22 1023.2
02 09:53 Vrbl 3 10.00 Fair CLR 53.1 30 41% 30.22 1023.4
02 08:53 Calm 10.00 Fair CLR 46.9 33.1 59% 30.22 1023.5
02 07:53 NW 3 10.00 Fair CLR 42.1 34 73% 30.21 1023.2
02 06:53 Calm 10.00 Fair CLR 39 30.9 51.1 37.9 73% 30.19 1022.6
02 05:53 NW 5 10.00 Fair CLR 39.9 32 73% 37 30.18 1022.2
02 04:53 NW 6 10.00 Fair CLR 39.9 33.1 77% 36 30.18 1022.0
02 03:53 N 5 10.00 Partly Cloudy SCT085 42.1 33.1 71% 40 30.16 1021.4
02 02:53 NE 3 10.00 Fair CLR 46.9 30.9 54% 30.15 1020.9
02 01:53 NE 7 10.00 Fair CLR 48.9 30.9 50% 46 30.15 1020.8
02 00:53 NE 8 10.00 Fair CLR 50 32 60.1 46.9 50% 47 30.14 1020.3
01 23:53 NE 7 10.00 Fair CLR 51.1 45 80% 30.13 1020.1
01 22:53 W 3 10.00 Mostly Cloudy BKN110 50 45 83% 30.13 1020.1
01 21:53 S 3 10.00 A Few Clouds FEW120 50 45 83% 30.1 1019.0
01 20:53 S 3 10.00 Fair CLR 52 45 77% 30.07 1018.4
01 19:53 S 6 10.00 Fair CLR 57 44.1 62% 30.06 1017.9
01 18:53 SW 7 10.00 Mostly Cloudy BKN110 60.1 39.9 66.9 59 48% 30.06 1018.1
Date Time (cdt) Wind (mph) Vis. (mi.) Weather Sky Cond. Air Dwpt Max. Min. Relative Humidity Wind Chill (°F) Heat Index (°F) altimeter (in) sea level (mb) 1 hr 3 hr 6 hr
6 hour
Temperature (ºF) Pressure Precipitation (in)